Arklow Mill — EIJD9 — position and weather

sailwx.info

Track history (hours):
 
Tides and Currents Weather Stations Pressure Air Temp Water Temp Dewpoint Dewpoint Depression Visibility Wind Speed Wind Dir Waves Ship Positions

Arklow Mill

Last reported at 2016-Feb-05 07:33 UTC. Time now 2016-Feb-06 23:26 UTC.
Position N 50°27' W 000°25'.

Length 137 m; draft 8.4 m.

Type: Ship. MMSI: 250002022.

Date/timePositionNaut miles runAvg speedWind from/ knotsBaromVisibWave heightAir tempDewpointWater temp
2016-Feb-05 07:33N 50°27' W 000°25'1111.0
2016-Feb-05 06:33N 50°30' W 000°08'1010.0
2016-Feb-05 05:33N 50°33' E 000°07'1110.4
2016-Feb-05 04:31N 50°36' E 000°23'2811.6
2016-Feb-05 02:04N 50°51' E 001°02'612.0
2016-Feb-05 01:33N 50°55' E 001°09'1211.7
2016-Feb-05 00:33N 51°02' E 001°23'1110.8
2016-Feb-04 23:33N 51°09' E 001°37'1010.2
2016-Feb-04 22:33N 51°16' E 001°48'1110.5
2016-Feb-04 21:33N 51°26' E 001°54'1111.2
2016-Feb-04 20:33N 51°35' E 002°06'17911.2
2016-Feb-04 04:33N 54°01' E 004°56'1210.6
2016-Feb-04 03:22N 54°12' E 005°06'278 8.2
2016-Feb-02 17:33N 57°47' E 010°20'6 6.4
2016-Feb-02 16:33N 57°48' E 010°31'6 6.2
2016-Feb-02 15:33N 57°49' E 010°43'9 8.8
2016-Feb-02 14:33N 57°43' E 010°56'1110.5
2016-Feb-02 13:33N 57°36' E 011°10'1110.5
2016-Feb-02 12:32N 57°29' E 011°25'1110.8
2016-Feb-02 11:34N 57°19' E 011°32'118 9.8
2016-Feb-01 23:27N 55°22' E 011°03'910.2
2016-Feb-01 22:33N 55°13' E 011°06'1010.4
2016-Feb-01 21:33N 55°03' E 011°02'1010.0
2016-Feb-01 20:33N 54°54' E 010°54'1010.4
2016-Feb-01 19:33N 54°44' E 010°53'10 9.6
2016-Feb-01 18:33N 54°38' E 011°06'9 9.1
2016-Feb-01 17:33N 54°33' E 011°20'9 9.2
2016-Feb-01 16:33N 54°30' E 011°34'10 9.8
2016-Feb-01 15:33N 54°26' E 011°50'1010.4
2016-Feb-01 14:33N 54°27' E 012°08'3310.3
2016-Feb-01 11:21N 54°49' E 012°50'1011.8
2016-Feb-01 10:32N 54°52' E 013°06'1111.6
2016-Feb-01 09:33N 54°56' E 013°24'1111.3
2016-Feb-01 08:33N 55°00' E 013°43'1211.5
2016-Feb-01 07:33N 55°04' E 014°02'1111.4
2016-Feb-01 06:33N 55°12' E 014°16'1211.5
2016-Feb-01 05:33N 55°21' E 014°29'1111.3
2016-Feb-01 04:33N 55°29' E 014°43'1110.8
2016-Feb-01 03:34N 55°34' E 014°60'  
2016-Jan-28 13:15N 55°37' E 015°42'913.2
2016-Jan-28 12:33N 55°34' E 015°27'1313.3
2016-Jan-28 11:33N 55°29' E 015°05'1313.3
2016-Jan-28 10:33N 55°24' E 014°44'1313.1
2016-Jan-28 09:33N 55°14' E 014°28'1312.9
2016-Jan-28 08:33N 55°05' E 014°13'1312.7
2016-Jan-28 07:33N 54°58' E 013°54'3913.1
2016-Jan-28 04:33N 54°46' E 012°49'1913.3
2016-Jan-28 03:09N 54°36' E 012°22'912.6
2016-Jan-28 02:28N 54°28' E 012°14'1112.6
2016-Jan-28 01:33N 54°23' E 011°57'1313.2
2016-Jan-28 00:33N 54°16' E 011°38'1211.6
2016-Jan-27 23:33N 54°06' E 011°27'9 9.4
2016-Jan-27 22:33N 53°57' E 011°24'3 3.1
2016-Jan-27 21:30N 53°54' E 011°27'0 0.0
2016-Jan-27 20:33N 53°54' E 011°27'0 0.0
2016-Jan-27 19:33N 53°54' E 011°27'0 0.0
2016-Jan-27 18:33N 53°54' E 011°27'0 0.0
2016-Jan-27 17:33N 53°54' E 011°27'0 0.0
2016-Jan-27 16:33N 53°54' E 011°27'0 0.0
2016-Jan-27 15:33N 53°54' E 011°27'0 0.0
2016-Jan-27 14:33N 53°54' E 011°27'0 0.0
2016-Jan-27 13:33N 53°54' E 011°27'0 0.0
2016-Jan-27 12:33N 53°54' E 011°27'0 0.0
2016-Jan-27 11:33N 53°54' E 011°27'0 0.0
2016-Jan-27 10:33N 53°54' E 011°27'0 0.0
2016-Jan-27 09:33N 53°54' E 011°27'0 0.0
2016-Jan-27 08:33N 53°54' E 011°27'0 0.0
2016-Jan-27 07:33N 53°54' E 011°27'0 0.0
2016-Jan-27 06:33N 53°54' E 011°27'0 0.0
2016-Jan-27 05:33N 53°54' E 011°27'0 0.0
2016-Jan-27 04:33N 53°54' E 011°27'0 0.0
2016-Jan-27 03:33N 53°54' E 011°27'0 0.0
2016-Jan-27 02:33N 53°54' E 011°27'0 0.0
2016-Jan-27 01:33N 53°54' E 011°27'0 0.0
2016-Jan-27 00:33N 53°54' E 011°27'0 0.0
2016-Jan-26 23:33N 53°54' E 011°27'0 0.0
2016-Jan-26 22:33N 53°54' E 011°27'0 0.0
2016-Jan-26 21:33N 53°54' E 011°27'0 0.0
2016-Jan-26 20:33N 53°54' E 011°27'0 0.0
2016-Jan-26 19:33N 53°54' E 011°27'0 0.0
2016-Jan-26 18:33N 53°54' E 011°27'0 0.0
2016-Jan-26 17:33N 53°54' E 011°27'0 0.0
2016-Jan-26 16:33N 53°54' E 011°27'0 0.0
2016-Jan-26 15:33N 53°54' E 011°27'0 0.0
2016-Jan-26 14:33N 53°54' E 011°27'0 0.0
2016-Jan-26 13:33N 53°54' E 011°27'0 0.0
2016-Jan-26 12:33N 53°54' E 011°27'0 0.0
2016-Jan-26 11:33N 53°54' E 011°27'0 0.0
2016-Jan-26 10:30N 53°54' E 011°27'0 0.0
2016-Jan-26 09:30N 53°54' E 011°27'0 0.0
2016-Jan-26 08:33N 53°54' E 011°27'0 0.0
2016-Jan-26 07:33N 53°54' E 011°27'  
Track history (hours):
 
Tides and Currents Weather Stations Pressure Air Temp Water Temp Dewpoint Dewpoint Depression Visibility Wind Speed Wind Dir Waves Ship Positions

Arklow Mill

Last reported at 2016-Feb-05 07:33 UTC. Time now 2016-Feb-06 23:26 UTC.
Position N 50°27' W 000°25'.

Length 137 m; draft 8.4 m.

Type: Ship. MMSI: 250002022.

Date/timePositionNaut miles runAvg speedWind from/ knotsBaromVisibWave heightAir tempDewpointWater temp
2016-Feb-05 07:33N 50°27' W 000°25'1111.0
2016-Feb-05 06:33N 50°30' W 000°08'1010.0
2016-Feb-05 05:33N 50°33' E 000°07'1110.4
2016-Feb-05 04:31N 50°36' E 000°23'2811.6
2016-Feb-05 02:04N 50°51' E 001°02'612.0
2016-Feb-05 01:33N 50°55' E 001°09'1211.7
2016-Feb-05 00:33N 51°02' E 001°23'1110.8
2016-Feb-04 23:33N 51°09' E 001°37'1010.2
2016-Feb-04 22:33N 51°16' E 001°48'1110.5
2016-Feb-04 21:33N 51°26' E 001°54'1111.2
2016-Feb-04 20:33N 51°35' E 002°06'17911.2
2016-Feb-04 04:33N 54°01' E 004°56'1210.6
2016-Feb-04 03:22N 54°12' E 005°06'278 8.2
2016-Feb-02 17:33N 57°47' E 010°20'6 6.4
2016-Feb-02 16:33N 57°48' E 010°31'6 6.2
2016-Feb-02 15:33N 57°49' E 010°43'9 8.8
2016-Feb-02 14:33N 57°43' E 010°56'1110.5
2016-Feb-02 13:33N 57°36' E 011°10'1110.5
2016-Feb-02 12:32N 57°29' E 011°25'1110.8
2016-Feb-02 11:34N 57°19' E 011°32'118 9.8
2016-Feb-01 23:27N 55°22' E 011°03'910.2
2016-Feb-01 22:33N 55°13' E 011°06'1010.4
2016-Feb-01 21:33N 55°03' E 011°02'1010.0
2016-Feb-01 20:33N 54°54' E 010°54'1010.4
2016-Feb-01 19:33N 54°44' E 010°53'10 9.6
2016-Feb-01 18:33N 54°38' E 011°06'9 9.1
2016-Feb-01 17:33N 54°33' E 011°20'9 9.2
2016-Feb-01 16:33N 54°30' E 011°34'10 9.8
2016-Feb-01 15:33N 54°26' E 011°50'1010.4
2016-Feb-01 14:33N 54°27' E 012°08'3310.3
2016-Feb-01 11:21N 54°49' E 012°50'1011.8
2016-Feb-01 10:32N 54°52' E 013°06'1111.6
2016-Feb-01 09:33N 54°56' E 013°24'1111.3
2016-Feb-01 08:33N 55°00' E 013°43'1211.5
2016-Feb-01 07:33N 55°04' E 014°02'1111.4
2016-Feb-01 06:33N 55°12' E 014°16'1211.5
2016-Feb-01 05:33N 55°21' E 014°29'1111.3
2016-Feb-01 04:33N 55°29' E 014°43'1110.8
2016-Feb-01 03:34N 55°34' E 014°60'  
2016-Jan-28 13:15N 55°37' E 015°42'913.2
2016-Jan-28 12:33N 55°34' E 015°27'1313.3
2016-Jan-28 11:33N 55°29' E 015°05'1313.3
2016-Jan-28 10:33N 55°24' E 014°44'1313.1
2016-Jan-28 09:33N 55°14' E 014°28'1312.9
2016-Jan-28 08:33N 55°05' E 014°13'1312.7
2016-Jan-28 07:33N 54°58' E 013°54'3913.1
2016-Jan-28 04:33N 54°46' E 012°49'1913.3
2016-Jan-28 03:09N 54°36' E 012°22'912.6
2016-Jan-28 02:28N 54°28' E 012°14'1112.6
2016-Jan-28 01:33N 54°23' E 011°57'1313.2
2016-Jan-28 00:33N 54°16' E 011°38'1211.6
2016-Jan-27 23:33N 54°06' E 011°27'9 9.4
2016-Jan-27 22:33N 53°57' E 011°24'3 3.1
2016-Jan-27 21:30N 53°54' E 011°27'0 0.0
2016-Jan-27 20:33N 53°54' E 011°27'0 0.0
2016-Jan-27 19:33N 53°54' E 011°27'0 0.0
2016-Jan-27 18:33N 53°54' E 011°27'0 0.0
2016-Jan-27 17:33N 53°54' E 011°27'0 0.0
2016-Jan-27 16:33N 53°54' E 011°27'0 0.0
2016-Jan-27 15:33N 53°54' E 011°27'0 0.0
2016-Jan-27 14:33N 53°54' E 011°27'0 0.0
2016-Jan-27 13:33N 53°54' E 011°27'0 0.0
2016-Jan-27 12:33N 53°54' E 011°27'0 0.0
2016-Jan-27 11:33N 53°54' E 011°27'0 0.0
2016-Jan-27 10:33N 53°54' E 011°27'0 0.0
2016-Jan-27 09:33N 53°54' E 011°27'0 0.0
2016-Jan-27 08:33N 53°54' E 011°27'0 0.0
2016-Jan-27 07:33N 53°54' E 011°27'0 0.0
2016-Jan-27 06:33N 53°54' E 011°27'0 0.0
2016-Jan-27 05:33N 53°54' E 011°27'0 0.0
2016-Jan-27 04:33N 53°54' E 011°27'0 0.0
2016-Jan-27 03:33N 53°54' E 011°27'0 0.0
2016-Jan-27 02:33N 53°54' E 011°27'0 0.0
2016-Jan-27 01:33N 53°54' E 011°27'0 0.0
2016-Jan-27 00:33N 53°54' E 011°27'0 0.0
2016-Jan-26 23:33N 53°54' E 011°27'0 0.0
2016-Jan-26 22:33N 53°54' E 011°27'0 0.0
2016-Jan-26 21:33N 53°54' E 011°27'0 0.0
2016-Jan-26 20:33N 53°54' E 011°27'0 0.0
2016-Jan-26 19:33N 53°54' E 011°27'0 0.0
2016-Jan-26 18:33N 53°54' E 011°27'0 0.0
2016-Jan-26 17:33N 53°54' E 011°27'0 0.0
2016-Jan-26 16:33N 53°54' E 011°27'0 0.0
2016-Jan-26 15:33N 53°54' E 011°27'0 0.0
2016-Jan-26 14:33N 53°54' E 011°27'0 0.0
2016-Jan-26 13:33N 53°54' E 011°27'0 0.0
2016-Jan-26 12:33N 53°54' E 011°27'0 0.0
2016-Jan-26 11:33N 53°54' E 011°27'0 0.0
2016-Jan-26 10:30N 53°54' E 011°27'0 0.0
2016-Jan-26 09:30N 53°54' E 011°27'0 0.0
2016-Jan-26 08:33N 53°54' E 011°27'0 0.0
2016-Jan-26 07:33N 53°54' E 011°27'  

Dump ship's entire track history